createdAt,value
2022-08-17T00:04:22.736Z,9.00
2022-08-17T00:09:26.211Z,9.23
2022-08-17T00:14:30.660Z,8.20
2022-08-17T00:19:34.806Z,8.52
2022-08-17T00:24:41.729Z,8.73
2022-08-17T00:29:46.834Z,8.20
2022-08-17T00:34:50.964Z,8.68
2022-08-17T00:39:55.240Z,8.35
2022-08-17T00:44:59.607Z,8.43
2022-08-17T00:50:07.035Z,8.43
2022-08-17T00:55:11.179Z,8.32
2022-08-17T01:00:21.123Z,8.10
2022-08-17T01:05:33.141Z,7.97
2022-08-17T01:10:58.921Z,8.52
2022-08-17T01:16:27.922Z,7.18
2022-08-17T01:21:52.795Z,8.13
2022-08-17T01:26:57.662Z,7.32
2022-08-17T01:32:04.466Z,7.47
2022-08-17T01:37:08.975Z,7.88
2022-08-17T01:42:24.811Z,8.75
2022-08-17T01:47:30.457Z,9.10
2022-08-17T01:52:35.435Z,12.63
2022-08-17T01:57:38.712Z,32.10
2022-08-17T02:02:42.604Z,46.78
2022-08-17T02:07:59.966Z,26.98
2022-08-17T02:13:05.329Z,11.55
2022-08-17T02:18:10.844Z,9.02
2022-08-17T02:23:14.264Z,7.45
2022-08-17T02:28:18.286Z,7.53
2022-08-17T02:33:22.776Z,7.95
2022-08-17T02:38:26.790Z,8.55
2022-08-17T02:43:30.473Z,8.45
2022-08-17T02:48:34.082Z,7.78
2022-08-17T02:53:44.488Z,7.45
2022-08-17T02:58:47.972Z,7.47
2022-08-17T03:03:51.527Z,6.70
2022-08-17T03:08:55.086Z,7.18
2022-08-17T03:13:58.500Z,8.55
2022-08-17T03:19:02.003Z,7.90
2022-08-17T03:24:08.689Z,8.43
2022-08-17T03:29:12.428Z,7.15
2022-08-17T03:34:16.949Z,7.35
2022-08-17T03:39:21.125Z,7.78
2022-08-17T03:44:24.745Z,8.13
2022-08-17T03:49:28.849Z,7.35
2022-08-17T03:54:32.752Z,7.00
2022-08-17T03:59:36.308Z,7.72
2022-08-17T04:04:40.504Z,7.20
2022-08-17T04:09:43.984Z,8.23
2022-08-17T04:14:52.585Z,7.38
2022-08-17T04:19:57.783Z,6.40
2022-08-17T04:25:15.104Z,6.75
2022-08-17T04:30:18.819Z,6.35
2022-08-17T04:35:27.560Z,5.85
2022-08-17T04:40:31.626Z,5.45
2022-08-17T04:45:40.001Z,6.22
2022-08-17T04:50:48.926Z,5.75
2022-08-17T04:55:53.577Z,6.53
2022-08-17T05:00:57.209Z,7.38
2022-08-17T05:06:01.071Z,5.93
2022-08-17T05:11:04.772Z,6.63
2022-08-17T05:16:08.706Z,5.65
2022-08-17T05:21:11.950Z,6.20
2022-08-17T05:26:26.516Z,6.03
2022-08-17T05:31:31.796Z,5.00
2022-08-17T05:36:42.048Z,5.45
2022-08-17T05:41:49.550Z,4.80
2022-08-17T05:46:53.973Z,5.47
2022-08-17T05:52:26.960Z,5.35
2022-08-17T05:57:47.456Z,5.20
2022-08-17T06:03:01.268Z,4.75
2022-08-17T06:08:24.196Z,4.93
2022-08-17T06:14:05.059Z,4.03
2022-08-17T06:19:25.542Z,4.28
2022-08-17T06:24:44.054Z,4.60
2022-08-17T06:29:58.100Z,4.80
2022-08-17T06:35:03.276Z,5.38
2022-08-17T06:40:37.809Z,4.22
2022-08-17T06:45:57.813Z,4.38
2022-08-17T06:51:16.450Z,3.72
2022-08-17T06:56:54.060Z,4.65
2022-08-17T07:01:55.664Z,5.13
2022-08-17T07:07:10.999Z,4.25
2022-08-17T07:12:23.232Z,4.50
2022-08-17T07:17:46.487Z,4.75
2022-08-17T07:23:19.661Z,4.07
2022-08-17T07:28:23.973Z,3.60
2022-08-17T07:33:32.697Z,3.90
2022-08-17T07:38:56.774Z,4.50
2022-08-17T07:44:00.140Z,3.75
2022-08-17T07:49:03.809Z,3.72
2022-08-17T07:54:16.583Z,4.03
2022-08-17T07:59:38.093Z,3.85
2022-08-17T08:05:00.656Z,4.13
2022-08-17T08:10:16.651Z,3.58
2022-08-17T08:15:33.166Z,4.55
2022-08-17T08:20:52.904Z,4.22
2022-08-17T08:26:22.011Z,4.03
2022-08-17T08:32:05.322Z,3.93
2022-08-17T08:37:34.556Z,3.75
2022-08-17T08:43:05.225Z,3.42
2022-08-17T08:48:56.346Z,3.55
2022-08-17T08:54:39.590Z,3.08
2022-08-17T09:00:12.106Z,3.72
2022-08-17T09:05:37.329Z,4.10
2022-08-17T09:10:44.178Z,3.92
2022-08-17T09:16:13.646Z,3.63
2022-08-17T09:21:36.278Z,4.00
2022-08-17T09:26:58.116Z,5.55
2022-08-17T09:32:09.670Z,5.22
2022-08-17T09:42:58.972Z,3.30
2022-08-17T09:48:22.147Z,2.75
2022-08-17T09:53:26.445Z,3.70
2022-08-17T09:59:03.626Z,3.60
2022-08-17T10:04:44.469Z,3.40
2022-08-17T10:10:19.736Z,3.65
2022-08-17T10:15:42.740Z,3.72
2022-08-17T10:20:57.510Z,3.95
2022-08-17T10:26:18.852Z,3.53
2022-08-17T10:36:50.641Z,3.97
2022-08-17T10:41:58.170Z,3.08
2022-08-17T10:47:11.737Z,3.40
2022-08-17T10:52:25.266Z,3.20
2022-08-17T10:57:40.241Z,3.85
2022-08-17T11:02:51.345Z,3.35
2022-08-17T11:08:13.511Z,4.03
2022-08-17T11:14:02.121Z,2.95
2022-08-17T11:19:54.887Z,3.97
2022-08-17T11:25:13.431Z,3.10
2022-08-17T11:30:56.722Z,3.65
2022-08-17T11:36:39.864Z,4.60
2022-08-17T11:42:03.256Z,3.60
2022-08-17T11:47:12.756Z,3.33
2022-08-17T11:52:37.728Z,4.00
2022-08-17T11:57:41.856Z,4.80
2022-08-17T12:02:48.496Z,3.33
2022-08-17T12:08:07.024Z,3.33
2022-08-17T12:13:15.744Z,3.10
2022-08-17T12:18:28.394Z,2.97
2022-08-17T12:24:07.244Z,2.85
2022-08-17T12:29:17.855Z,3.13
2022-08-17T12:34:44.039Z,2.78
2022-08-17T12:40:06.854Z,2.83
2022-08-17T12:45:27.097Z,2.75
2022-08-17T12:50:31.010Z,2.10
2022-08-17T12:55:37.092Z,2.45
2022-08-17T13:00:47.301Z,2.35
2022-08-17T13:52:42.833Z,1.83
2022-08-17T13:57:50.579Z,2.95
2022-08-17T14:03:10.192Z,2.47
2022-08-17T14:08:15.929Z,2.15
2022-08-17T14:13:20.065Z,1.77
2022-08-17T14:18:35.517Z,2.15
2022-08-17T14:23:49.053Z,2.40
2022-08-17T14:28:58.276Z,2.55
2022-08-17T14:34:05.828Z,1.85
2022-08-17T14:39:11.127Z,2.22
2022-08-17T14:44:16.579Z,1.83
2022-08-17T14:49:20.117Z,1.75
2022-08-17T14:54:32.606Z,2.40
2022-08-17T14:59:37.887Z,2.00
2022-08-17T15:04:45.503Z,1.80
2022-08-17T15:09:49.341Z,2.03
2022-08-17T15:14:52.886Z,2.22
2022-08-17T15:19:56.454Z,2.20
2022-08-17T15:25:05.459Z,2.95
2022-08-17T15:30:10.460Z,2.22
2022-08-17T15:35:14.626Z,2.67
2022-08-17T15:40:18.341Z,2.78
2022-08-17T15:45:24.509Z,2.38
2022-08-17T15:50:28.124Z,2.08
2022-08-17T15:55:33.269Z,2.30
2022-08-17T16:00:53.548Z,2.30
2022-08-17T16:05:59.982Z,2.30
2022-08-17T16:11:04.317Z,3.60
2022-08-17T16:16:09.071Z,2.40
2022-08-17T16:21:16.285Z,2.67
2022-08-17T16:26:19.843Z,2.67
2022-08-17T16:31:24.527Z,2.80
2022-08-17T16:36:28.149Z,2.88
2022-08-17T16:41:31.932Z,2.55
2022-08-17T16:46:35.521Z,2.97
2022-08-17T16:51:40.497Z,3.42
2022-08-17T16:56:43.968Z,3.60
2022-08-17T17:01:47.690Z,3.25
2022-08-17T17:07:31.795Z,3.42
2022-08-17T17:13:02.209Z,3.40
2022-08-17T17:18:06.930Z,3.97
2022-08-17T17:23:43.166Z,3.75
2022-08-17T17:29:10.998Z,3.90
2022-08-17T17:34:16.268Z,3.80
2022-08-17T17:39:26.550Z,3.65
2022-08-17T17:44:38.374Z,3.88
2022-08-17T17:49:46.793Z,3.93
2022-08-17T17:54:56.308Z,4.60
2022-08-17T17:59:59.604Z,3.88
2022-08-17T18:05:23.235Z,4.50
2022-08-17T18:10:42.000Z,3.80
2022-08-17T18:15:48.636Z,3.83
2022-08-17T18:20:55.889Z,4.57
2022-08-17T18:26:00.636Z,5.38
2022-08-17T18:31:16.642Z,4.28
2022-08-17T18:36:30.146Z,4.60
2022-08-17T18:41:41.668Z,4.40
2022-08-17T18:46:45.270Z,4.57
2022-08-17T18:51:48.774Z,5.93
2022-08-17T18:56:55.351Z,5.40
2022-08-17T19:02:33.664Z,5.20
2022-08-17T19:07:47.258Z,5.05
2022-08-17T19:12:50.662Z,6.38
2022-08-17T19:18:15.530Z,5.13
2022-08-17T19:23:36.208Z,5.60
2022-08-17T19:28:49.726Z,5.60
2022-08-17T19:33:54.490Z,5.65
2022-08-17T19:38:58.958Z,5.97
2022-08-17T19:44:18.581Z,5.55
2022-08-17T19:49:40.873Z,4.88
2022-08-17T19:54:54.049Z,5.93
2022-08-17T20:00:05.588Z,6.50
2022-08-17T20:05:17.005Z,6.15
2022-08-17T20:10:34.207Z,6.55
2022-08-17T20:15:41.482Z,6.28
2022-08-17T20:21:10.395Z,6.72
2022-08-17T20:26:34.826Z,6.60
2022-08-17T20:31:49.289Z,7.30
2022-08-17T20:37:03.062Z,7.22
2022-08-17T20:42:11.963Z,7.40
2022-08-17T20:47:32.142Z,7.20
2022-08-17T20:52:47.978Z,6.72
2022-08-17T20:57:51.645Z,6.95
2022-08-17T21:03:19.951Z,7.30
2022-08-17T21:08:45.870Z,7.55
2022-08-17T21:14:13.602Z,6.93
2022-08-17T21:20:00.489Z,7.50
2022-08-17T21:25:42.857Z,7.30
2022-08-17T21:30:59.019Z,7.00
2022-08-17T21:36:12.270Z,6.93
2022-08-17T21:41:32.656Z,7.53
2022-08-17T21:46:40.528Z,8.18
2022-08-17T21:51:53.812Z,7.65
2022-08-17T21:57:00.030Z,7.90
2022-08-17T22:02:05.908Z,8.20
2022-08-17T22:07:12.409Z,8.07
2022-08-17T22:12:19.308Z,7.50
2022-08-17T22:17:36.627Z,7.32
2022-08-17T22:22:46.508Z,7.32
2022-08-17T22:27:52.594Z,7.57
2022-08-17T22:32:57.061Z,7.78
2022-08-17T22:38:18.749Z,7.47
2022-08-17T22:43:26.667Z,7.05
2022-08-17T22:48:30.275Z,7.30
2022-08-17T22:53:35.856Z,7.43
2022-08-17T22:58:58.712Z,7.82
2022-08-17T23:04:06.752Z,7.68
2022-08-17T23:09:09.954Z,7.55
2022-08-17T23:14:14.267Z,8.32
2022-08-17T23:19:20.892Z,8.18
2022-08-17T23:24:32.366Z,7.78
2022-08-17T23:29:36.334Z,7.07
2022-08-17T23:34:41.189Z,8.13
2022-08-17T23:39:45.840Z,7.65
2022-08-17T23:44:49.187Z,7.40
2022-08-17T23:49:54.223Z,8.13
2022-08-17T23:55:01.161Z,8.27
